createdAt,value
2022-07-29T03:02:09.516Z,81.22
2022-07-29T03:04:41.362Z,37.88
2022-07-29T03:07:11.041Z,23.42
2022-07-29T03:09:39.986Z,31.12
2022-07-29T03:12:07.957Z,63.83
2022-07-29T03:14:37.182Z,65.10
2022-07-29T03:17:07.974Z,59.60
2022-07-29T03:19:35.479Z,67.90
2022-07-29T03:22:03.399Z,47.62
2022-07-29T03:24:33.675Z,59.38
2022-07-29T03:27:02.264Z,62.72
2022-07-29T03:29:33.690Z,229.80
2022-07-29T03:32:07.203Z,103.97
2022-07-29T03:34:37.712Z,53.80
2022-07-29T03:37:09.459Z,146.68
2022-07-29T03:39:42.040Z,64.10
2022-07-29T03:42:13.197Z,57.33
2022-07-29T03:44:44.106Z,100.80
2022-07-29T03:47:14.627Z,54.28
2022-07-29T03:49:43.311Z,41.80
2022-07-29T03:52:10.990Z,35.22
2022-07-29T03:54:39.809Z,37.85
2022-07-29T03:57:08.577Z,18.85
2022-07-29T03:59:36.719Z,31.52
2022-07-29T04:04:36.307Z,46.17
2022-07-29T04:07:04.681Z,13.48
2022-07-29T04:09:32.422Z,17.37
2022-07-29T04:12:03.451Z,23.05
2022-07-29T04:14:35.696Z,16.60
2022-07-29T04:17:05.070Z,24.55
2022-07-29T04:19:33.352Z,45.60
2022-07-29T04:22:01.589Z,14.45
2022-07-29T04:24:30.030Z,19.62
2022-07-29T04:26:57.375Z,14.90
2022-07-29T04:29:24.756Z,15.20
2022-07-29T04:31:52.711Z,15.55
2022-07-29T04:34:21.465Z,19.87
2022-07-29T04:36:48.817Z,27.40
2022-07-29T04:39:22.174Z,18.83
2022-07-29T04:41:54.995Z,21.67
2022-07-29T04:44:28.810Z,37.70
2022-07-29T04:46:56.983Z,38.63
2022-07-29T04:49:24.965Z,25.67
2022-07-29T04:51:52.421Z,34.15
2022-07-29T04:54:19.898Z,47.08
2022-07-29T04:56:47.725Z,26.67
2022-07-29T04:59:15.262Z,25.62
2022-07-29T05:01:42.729Z,16.60
2022-07-29T05:04:10.928Z,23.05
2022-07-29T05:06:38.478Z,15.00
2022-07-29T05:09:05.846Z,17.62
2022-07-29T05:11:33.562Z,19.85
2022-07-29T05:14:00.999Z,18.92
2022-07-29T05:16:29.035Z,16.27
2022-07-29T05:18:56.777Z,17.17
2022-07-29T05:21:24.139Z,24.30
2022-07-29T05:23:51.560Z,16.00
2022-07-29T05:26:19.369Z,17.92
2022-07-29T05:28:46.726Z,15.50
2022-07-29T05:31:15.842Z,16.48
2022-07-29T05:33:44.025Z,19.00
2022-07-29T05:36:11.418Z,15.23
2022-07-29T05:38:40.029Z,13.20
2022-07-29T05:41:07.954Z,13.88
2022-07-29T05:43:35.329Z,15.43
2022-07-29T05:46:02.725Z,12.88
2022-07-29T05:48:30.953Z,14.25
2022-07-29T05:50:58.359Z,14.75
2022-07-29T05:53:25.761Z,15.15
2022-07-29T05:55:53.626Z,15.20
2022-07-29T05:58:21.538Z,17.62
2022-07-29T06:00:49.061Z,14.80
2022-07-29T06:03:16.940Z,15.57
2022-07-29T06:05:44.455Z,15.20
2022-07-29T06:08:11.974Z,13.75
2022-07-29T06:10:39.817Z,12.23
2022-07-29T06:13:07.386Z,11.23
2022-07-29T06:15:35.298Z,10.52
2022-07-29T06:18:03.264Z,17.20
2022-07-29T06:20:32.414Z,10.77
2022-07-29T06:23:00.670Z,11.68
2022-07-29T06:25:33.518Z,11.00
2022-07-29T06:28:00.920Z,14.05
2022-07-29T06:30:29.879Z,9.70
2022-07-29T06:32:57.272Z,10.02
2022-07-29T06:35:38.385Z,10.98
2022-07-29T06:38:34.110Z,7.93
2022-07-29T06:41:01.211Z,10.20
2022-07-29T06:43:52.079Z,14.40
2022-07-29T06:46:23.398Z,7.65
2022-07-29T06:48:52.920Z,10.50
2022-07-29T06:51:23.171Z,6.72
2022-07-29T06:53:59.631Z,8.98
2022-07-29T06:56:39.327Z,7.22
2022-07-29T06:59:11.789Z,10.00
2022-07-29T07:01:41.618Z,8.45
2022-07-29T07:04:10.535Z,7.30
2022-07-29T07:06:41.059Z,9.60
2022-07-29T07:09:08.809Z,7.40
2022-07-29T07:11:36.559Z,6.32
2022-07-29T07:14:04.484Z,8.73
2022-07-29T07:16:33.122Z,7.20
2022-07-29T07:19:01.253Z,7.20
2022-07-29T07:21:30.191Z,7.53
2022-07-29T07:23:59.399Z,6.45
2022-07-29T07:26:27.551Z,6.07
2022-07-29T07:28:55.061Z,6.30
2022-07-29T07:31:22.845Z,7.47
2022-07-29T07:33:50.298Z,5.70
2022-07-29T07:36:17.740Z,5.68
2022-07-29T07:38:45.802Z,6.87
2022-07-29T07:41:13.189Z,6.35
2022-07-29T07:43:40.627Z,5.37
2022-07-29T07:46:08.462Z,6.18
2022-07-29T07:48:37.303Z,6.07
2022-07-29T07:51:04.878Z,7.47
2022-07-29T07:53:32.673Z,6.10
2022-07-29T07:56:10.462Z,6.35
2022-07-29T07:58:39.955Z,6.55
2022-07-29T08:01:07.721Z,6.35
2022-07-29T08:03:35.684Z,6.15
2022-07-29T08:06:04.509Z,8.27
2022-07-29T08:08:31.965Z,8.10
2022-07-29T08:11:02.269Z,7.35
2022-07-29T08:13:35.574Z,6.22
2022-07-29T08:16:12.032Z,6.60
2022-07-29T08:18:41.715Z,7.37
2022-07-29T08:21:09.523Z,9.15
2022-07-29T08:23:47.087Z,6.47
2022-07-29T08:26:16.842Z,6.22
2022-07-29T08:28:46.984Z,6.50
2022-07-29T08:31:15.055Z,8.45
2022-07-29T08:33:43.562Z,9.65
2022-07-29T08:36:11.654Z,8.40
2022-07-29T08:38:39.106Z,6.10
2022-07-29T08:41:07.264Z,7.85
2022-07-29T08:43:38.486Z,8.57
2022-07-29T08:46:06.093Z,8.73
2022-07-29T08:48:37.911Z,7.65
2022-07-29T08:51:08.213Z,5.43
2022-07-29T08:53:39.181Z,8.80
2022-07-29T08:56:07.259Z,6.65
2022-07-29T08:58:37.041Z,5.70
2022-07-29T09:01:12.426Z,7.35
2022-07-29T09:03:42.764Z,6.78
2022-07-29T09:06:15.398Z,8.00
2022-07-29T09:08:43.552Z,6.12
2022-07-29T09:11:12.801Z,4.82
2022-07-29T09:13:40.657Z,7.10
2022-07-29T09:16:09.611Z,12.23
2022-07-29T09:18:46.016Z,5.62
2022-07-29T09:21:34.873Z,4.18
2022-07-29T09:24:12.509Z,5.80
2022-07-29T09:26:45.514Z,6.75
2022-07-29T09:29:21.713Z,5.20
2022-07-29T09:31:52.287Z,6.62
2022-07-29T09:34:25.675Z,4.05
2022-07-29T09:36:55.254Z,6.60
2022-07-29T09:39:32.078Z,5.40
2022-07-29T09:42:02.842Z,4.22
2022-07-29T09:44:51.726Z,4.00
2022-07-29T09:47:22.829Z,4.43
2022-07-29T09:49:59.445Z,6.53
2022-07-29T09:52:28.426Z,7.12
2022-07-29T09:55:07.544Z,5.22
2022-07-29T09:57:35.003Z,5.45
2022-07-29T10:00:08.324Z,3.78
2022-07-29T10:02:41.149Z,5.35
2022-07-29T10:05:26.746Z,5.75
2022-07-29T10:08:04.043Z,4.30
2022-07-29T10:10:34.978Z,4.47
2022-07-29T10:13:16.513Z,6.37
2022-07-29T10:15:46.914Z,5.90
2022-07-29T10:18:15.772Z,5.68
2022-07-29T10:20:43.236Z,5.40
2022-07-29T10:23:11.425Z,4.57
2022-07-29T10:25:38.942Z,4.43
2022-07-29T10:28:07.209Z,4.90
2022-07-29T10:30:35.664Z,4.05
2022-07-29T10:33:15.916Z,8.38
2022-07-29T10:36:02.212Z,3.62
2022-07-29T10:38:45.929Z,5.57
2022-07-29T10:41:43.848Z,4.68
2022-07-29T10:44:26.583Z,5.40
2022-07-29T10:46:55.248Z,4.25
2022-07-29T10:52:06.359Z,6.65
2022-07-29T10:54:37.110Z,5.53
2022-07-29T10:57:54.660Z,5.10
2022-07-29T11:00:27.318Z,6.22
2022-07-29T11:02:56.609Z,5.65
2022-07-29T11:05:32.320Z,3.67
2022-07-29T11:08:20.522Z,4.68
2022-07-29T11:10:54.542Z,5.93
2022-07-29T11:13:52.408Z,4.00
2022-07-29T11:16:26.738Z,5.28
2022-07-29T11:19:13.352Z,5.60
2022-07-29T11:21:53.914Z,5.70
2022-07-29T11:24:34.990Z,4.55
2022-07-29T11:27:13.260Z,4.20
2022-07-29T11:29:52.615Z,5.78
2022-07-29T11:32:24.081Z,8.75
2022-07-29T11:35:17.185Z,5.82
2022-07-29T11:37:52.484Z,4.07
2022-07-29T11:40:25.445Z,7.62
2022-07-29T11:42:53.591Z,4.45
2022-07-29T11:45:43.739Z,4.50
2022-07-29T11:48:28.933Z,5.43
2022-07-29T11:50:58.652Z,7.60
2022-07-29T11:53:29.288Z,5.30
2022-07-29T11:56:01.266Z,5.43
2022-07-29T11:58:31.760Z,5.60
2022-07-29T12:01:04.947Z,4.47
2022-07-29T12:03:36.164Z,5.00
2022-07-29T12:06:15.059Z,4.30
2022-07-29T12:08:44.666Z,5.28
2022-07-29T12:11:21.745Z,5.30
2022-07-29T12:13:51.870Z,4.07
2022-07-29T12:16:29.180Z,3.60
2022-07-29T12:19:02.978Z,6.12
2022-07-29T12:21:56.462Z,6.25
2022-07-29T12:24:26.711Z,5.32
2022-07-29T12:26:57.549Z,6.37
2022-07-29T12:29:35.621Z,5.07
2022-07-29T12:32:14.281Z,7.62
2022-07-29T12:34:42.628Z,6.70
2022-07-29T12:37:11.328Z,17.02
2022-07-29T12:39:39.300Z,6.28
2022-07-29T12:42:18.490Z,4.22
2022-07-29T12:44:50.761Z,7.50
2022-07-29T12:47:19.572Z,3.72
2022-07-29T12:49:47.929Z,7.07
2022-07-29T12:52:33.179Z,4.20
2022-07-29T12:55:02.031Z,4.57
2022-07-29T12:57:30.432Z,5.32
2022-07-29T13:00:14.099Z,5.03
2022-07-29T13:02:43.721Z,4.87
2022-07-29T13:05:12.419Z,6.12
2022-07-29T13:07:55.005Z,4.93
2022-07-29T13:10:30.549Z,4.90
2022-07-29T13:13:16.927Z,6.03
2022-07-29T13:15:46.057Z,9.48
2022-07-29T13:18:34.932Z,7.93
2022-07-29T13:21:16.470Z,5.70
2022-07-29T13:23:44.829Z,5.05
2022-07-29T13:26:12.933Z,5.50
2022-07-29T13:28:44.023Z,7.90
2022-07-29T13:31:12.309Z,5.47
2022-07-29T13:33:39.748Z,4.50
2022-07-29T13:36:07.414Z,4.97
2022-07-29T13:38:35.150Z,4.87
2022-07-29T13:41:03.513Z,4.75
2022-07-29T13:43:30.874Z,6.87
2022-07-29T13:45:58.636Z,5.18
2022-07-29T13:48:26.024Z,8.40
2022-07-29T13:50:53.395Z,16.03
2022-07-29T13:53:26.974Z,5.35
2022-07-29T13:55:55.192Z,5.30
2022-07-29T14:00:50.960Z,5.18
2022-07-29T14:03:18.797Z,5.80
2022-07-29T14:05:46.215Z,5.47
2022-07-29T14:08:13.552Z,5.30
2022-07-29T14:10:41.239Z,4.30
2022-07-29T14:13:24.491Z,8.60
2022-07-29T14:15:54.103Z,6.85
2022-07-29T14:18:21.515Z,4.32
2022-07-29T14:20:49.318Z,6.00
2022-07-29T14:25:49.856Z,4.30
2022-07-29T14:28:17.993Z,5.80
2022-07-29T14:30:45.421Z,4.68
2022-07-29T14:33:12.763Z,5.15
2022-07-29T14:35:43.031Z,9.13
2022-07-29T14:38:10.507Z,4.65
2022-07-29T14:40:38.303Z,6.72
2022-07-29T14:43:06.070Z,4.57
2022-07-29T14:45:33.481Z,4.65
2022-07-29T14:48:01.501Z,7.45
2022-07-29T14:50:31.927Z,3.92
2022-07-29T14:53:02.961Z,4.68
2022-07-29T14:55:31.023Z,5.68
2022-07-29T14:58:08.791Z,6.72
2022-07-29T15:00:38.985Z,6.68
2022-07-29T15:03:06.765Z,7.72
2022-07-29T15:05:39.852Z,4.32
2022-07-29T15:08:09.280Z,4.70
2022-07-29T15:10:39.231Z,5.70
2022-07-29T15:13:06.890Z,4.32
2022-07-29T15:15:34.411Z,3.60
2022-07-29T15:18:01.787Z,5.32
2022-07-29T15:20:29.618Z,4.20
2022-07-29T15:22:57.227Z,4.25
2022-07-29T15:25:26.547Z,4.47
2022-07-29T15:28:00.801Z,4.22
2022-07-29T15:30:33.311Z,5.00
2022-07-29T15:33:04.092Z,4.32
2022-07-29T15:35:40.268Z,5.60
2022-07-29T15:38:09.334Z,6.10
2022-07-29T15:40:42.302Z,5.82
2022-07-29T15:43:10.648Z,7.55
2022-07-29T15:48:14.777Z,6.32
2022-07-29T15:50:47.121Z,4.78
2022-07-29T15:53:15.183Z,5.47
2022-07-29T15:55:42.562Z,4.68
2022-07-29T15:58:11.931Z,4.75
2022-07-29T16:00:39.732Z,10.25
2022-07-29T16:03:07.453Z,6.07
2022-07-29T16:05:34.812Z,5.82
2022-07-29T16:08:02.192Z,4.68
2022-07-29T16:10:30.005Z,5.68
2022-07-29T16:12:57.370Z,8.85
2022-07-29T16:15:24.827Z,6.27
2022-07-29T16:17:52.504Z,6.90
2022-07-29T16:20:21.072Z,8.33
2022-07-29T16:22:49.535Z,6.03
2022-07-29T16:25:19.661Z,6.05
2022-07-29T16:27:47.088Z,5.18
2022-07-29T16:30:14.488Z,4.95
2022-07-29T16:32:42.292Z,5.00
2022-07-29T16:35:10.071Z,8.13
2022-07-29T16:37:38.384Z,6.62
2022-07-29T16:40:07.813Z,5.12
2022-07-29T16:42:47.481Z,5.28
2022-07-29T16:45:18.046Z,4.75
2022-07-29T16:47:51.384Z,8.50
2022-07-29T16:50:20.470Z,7.45
2022-07-29T16:52:47.846Z,11.20
2022-07-29T16:55:15.190Z,11.38
2022-07-29T16:57:44.009Z,9.10
2022-07-29T17:00:12.080Z,14.52
2022-07-29T17:02:39.636Z,11.73
2022-07-29T17:05:08.639Z,11.35
2022-07-29T17:07:36.290Z,12.20
2022-07-29T17:10:13.959Z,11.50
2022-07-29T17:12:42.139Z,11.70
2022-07-29T17:15:19.313Z,9.27
2022-07-29T17:18:28.473Z,13.20
2022-07-29T17:20:55.820Z,10.38
2022-07-29T17:23:26.554Z,10.50
2022-07-29T17:25:53.979Z,10.07
2022-07-29T17:28:21.995Z,14.65
2022-07-29T17:30:49.823Z,17.87
2022-07-29T17:33:19.554Z,10.60
2022-07-29T17:36:07.031Z,14.25
2022-07-29T17:38:34.785Z,10.50
2022-07-29T17:41:02.457Z,11.55
2022-07-29T17:43:39.876Z,11.68
2022-07-29T17:46:08.141Z,9.35
2022-07-29T17:48:36.328Z,6.93
2022-07-29T17:53:31.592Z,7.82
2022-07-29T17:56:01.685Z,9.33
2022-07-29T17:58:32.387Z,10.25
2022-07-29T18:01:00.028Z,7.35
2022-07-29T18:03:28.070Z,7.97
2022-07-29T18:05:55.805Z,7.57
2022-07-29T18:08:23.826Z,8.00
2022-07-29T18:13:31.991Z,10.98
2022-07-29T18:16:00.632Z,13.15
2022-07-29T18:20:55.994Z,13.27
2022-07-29T18:26:05.631Z,13.38
2022-07-29T18:28:36.443Z,10.27
2022-07-29T18:31:04.566Z,9.57
2022-07-29T18:33:32.801Z,11.25
2022-07-29T18:36:11.389Z,6.80
2022-07-29T18:38:41.435Z,11.07
2022-07-29T18:41:09.321Z,13.30
2022-07-29T18:43:59.247Z,9.95
2022-07-29T18:46:28.972Z,13.65
2022-07-29T18:48:57.490Z,10.65
2022-07-29T18:51:24.957Z,12.40
2022-07-29T18:53:52.803Z,18.10
2022-07-29T18:56:21.508Z,17.85
2022-07-29T18:58:48.874Z,12.73
2022-07-29T19:01:22.175Z,11.18
2022-07-29T19:03:49.698Z,8.70
2022-07-29T19:06:17.547Z,11.47
2022-07-29T19:08:45.210Z,14.77
2022-07-29T19:11:15.243Z,13.98
2022-07-29T19:13:43.292Z,8.10
2022-07-29T19:16:15.328Z,10.88
2022-07-29T19:18:44.812Z,8.48
2022-07-29T19:21:33.283Z,9.85
2022-07-29T19:24:17.500Z,9.15
2022-07-29T19:26:55.673Z,7.97
2022-07-29T19:29:28.569Z,11.43
2022-07-29T19:31:55.921Z,8.70
2022-07-29T19:34:23.801Z,11.13
2022-07-29T19:36:51.260Z,6.68
2022-07-29T19:39:18.713Z,8.48
2022-07-29T19:42:03.389Z,7.00
2022-07-29T19:44:31.074Z,6.82
2022-07-29T19:47:02.733Z,9.05
2022-07-29T19:49:30.451Z,10.27
2022-07-29T19:51:57.764Z,11.75
2022-07-29T19:54:26.708Z,7.00
2022-07-29T19:56:54.707Z,8.88
2022-07-29T19:59:24.588Z,7.65
2022-07-29T20:01:52.161Z,8.15
2022-07-29T20:04:19.880Z,10.20
2022-07-29T20:06:49.669Z,11.05
2022-07-29T20:09:20.610Z,8.68
2022-07-29T20:11:48.619Z,7.72
2022-07-29T20:14:16.043Z,13.77
2022-07-29T20:16:43.388Z,15.20
2022-07-29T20:19:11.109Z,8.88
2022-07-29T20:21:38.574Z,10.55
2022-07-29T20:24:06.329Z,9.52
2022-07-29T20:26:36.483Z,11.50
2022-07-29T20:29:05.457Z,9.70
2022-07-29T20:31:33.306Z,10.07
2022-07-29T20:34:02.139Z,12.55
2022-07-29T20:36:29.624Z,13.02
2022-07-29T20:38:57.240Z,9.52
2022-07-29T20:41:24.983Z,14.27
2022-07-29T20:43:53.008Z,10.18
2022-07-29T20:46:20.468Z,13.02
2022-07-29T20:48:48.354Z,7.53
2022-07-29T20:51:15.784Z,12.20
2022-07-29T20:53:43.160Z,7.35
2022-07-29T20:56:12.605Z,10.38
2022-07-29T20:58:40.995Z,7.90
2022-07-29T21:01:09.865Z,8.02
2022-07-29T21:03:37.745Z,14.50
2022-07-29T21:06:05.160Z,8.00
2022-07-29T21:08:32.523Z,10.60
2022-07-29T21:11:00.181Z,13.43
2022-07-29T21:13:27.744Z,11.12
2022-07-29T21:15:59.974Z,6.90
2022-07-29T21:18:32.463Z,10.35
2022-07-29T21:21:01.376Z,8.13
2022-07-29T21:23:30.325Z,9.18
2022-07-29T21:25:58.089Z,7.78
2022-07-29T21:28:29.537Z,11.00
2022-07-29T21:31:00.872Z,8.48
2022-07-29T21:33:30.084Z,8.82
2022-07-29T21:36:15.996Z,9.35
2022-07-29T21:38:45.440Z,10.88
2022-07-29T21:41:14.964Z,8.68
2022-07-29T21:43:42.790Z,7.25
2022-07-29T21:46:10.546Z,8.65
2022-07-29T21:48:42.420Z,9.75
2022-07-29T21:51:11.683Z,9.63
2022-07-29T21:53:39.289Z,9.65
2022-07-29T21:56:07.611Z,9.23
2022-07-29T21:58:40.685Z,11.15
2022-07-29T22:01:08.299Z,9.68
2022-07-29T22:03:36.134Z,10.60
2022-07-29T22:06:03.855Z,9.40
2022-07-29T22:08:31.168Z,9.30
2022-07-29T22:10:59.026Z,11.25
2022-07-29T22:13:26.681Z,10.18
2022-07-29T22:15:54.043Z,7.15
2022-07-29T22:18:24.708Z,8.57
2022-07-29T22:20:51.967Z,8.32
2022-07-29T22:23:19.213Z,7.10
2022-07-29T22:25:46.911Z,7.12
2022-07-29T22:28:14.137Z,8.88
2022-07-29T22:30:41.424Z,8.43
2022-07-29T22:33:09.117Z,10.02
2022-07-29T22:35:45.137Z,7.25
2022-07-29T22:38:19.685Z,11.60
2022-07-29T22:40:50.809Z,8.05
2022-07-29T22:43:18.844Z,7.47
2022-07-29T22:45:46.176Z,6.87
2022-07-29T22:48:13.611Z,9.43
2022-07-29T22:50:42.051Z,9.82
2022-07-29T22:53:09.422Z,8.10
2022-07-29T22:55:36.801Z,12.50
2022-07-29T22:58:04.406Z,10.55
2022-07-29T23:00:31.695Z,8.65
2022-07-29T23:02:58.987Z,9.05
2022-07-29T23:05:26.545Z,9.65
2022-07-29T23:07:53.833Z,11.77
2022-07-29T23:10:22.917Z,10.07
2022-07-29T23:12:50.687Z,9.65
2022-07-29T23:15:18.173Z,9.38
2022-07-29T23:17:45.459Z,7.72
2022-07-29T23:20:14.792Z,8.70
2022-07-29T23:22:42.335Z,10.20
2022-07-29T23:25:09.684Z,9.63
2022-07-29T23:27:37.543Z,7.23
2022-07-29T23:30:05.367Z,8.02
2022-07-29T23:32:32.646Z,9.82
2022-07-29T23:35:00.515Z,7.00
2022-07-29T23:37:28.055Z,10.65
2022-07-29T23:39:55.486Z,11.50
2022-07-29T23:42:23.314Z,14.70
2022-07-29T23:44:50.690Z,8.75
2022-07-29T23:47:18.155Z,8.73
2022-07-29T23:49:46.604Z,9.82
2022-07-29T23:52:13.772Z,9.15
2022-07-29T23:54:41.019Z,11.77
2022-07-29T23:57:09.022Z,8.65
2022-07-29T23:59:36.325Z,7.97
